Página principal
METAR-TAF:

METAR-TAF

Aeroportos :

Pequim, China

Aeroporto Internacional de Pequim

latitude: 39-56N, longitude: 116-17E, altura: 55 m

Observação actual do tempo

O boletim foi feito há 37 minutos, às 13:00 UTC
Vento 8 kt de noroeste
Temperatura 10°C
Humidade 32%
Pressão 1021 hPa
Visibilidade 10 km ou mais
sem nuvens abaixo de 1500 metros e sem cumulonimbus

METAR: ZBAA 251300Z 32004MPS CAVOK 10/M06 Q1021 NOSIG

Hora: 21:37 (13:37 UTC)

Previsão

O boletim foi feito há 4 horas e 17 minutos, às 09:20 UTC
Previsão válida de 25 às 12 UTC a 26 às 12 UTC
Vento 8 kt de noroeste
Visibilidade: 5000 m
neblina

TAF: ZBAA 250920Z 2512/2612 32004MPS 5000 BR NSC TX15/2607Z TN03/2521Z

Observações e previsões do tempo de mais de 4000 aeroportos (mensagens METAR e TAF).

As estações disponíveis são os pontos amarelos e vermelhos sobre o mapa.

Mova o rato sobre o mapa para ver o nome da estação.

Depois clique no ponto para visualizar as observações e previsões meteorológicas.

Para alterar o mapa : clique nos botões verdes com uma cruz preta para aumentar o zoom; no botão verde com uma pitada de zoom; ou nas setas verdes para mapas adjacentes.


METAR-TAF: